createdAt,value
2022-09-10T00:00:31.657Z,2.53
2022-09-10T00:02:42.318Z,2.38
2022-09-10T00:04:53.501Z,2.75
2022-09-10T00:07:01.582Z,2.13
2022-09-10T00:09:11.291Z,3.08
2022-09-10T00:11:21.125Z,3.50
2022-09-10T00:13:32.877Z,3.53
2022-09-10T00:15:45.698Z,3.00
2022-09-10T00:17:48.662Z,2.60
2022-09-10T00:19:50.223Z,3.00
2022-09-10T00:21:51.683Z,3.28
2022-09-10T00:23:53.379Z,3.03
2022-09-10T00:25:56.643Z,3.22
2022-09-10T00:28:00.554Z,3.03
2022-09-10T00:30:03.926Z,4.13
2022-09-10T00:32:05.469Z,3.83
2022-09-10T00:34:07.650Z,3.35
2022-09-10T00:36:19.532Z,3.83
2022-09-10T00:38:21.186Z,4.18
2022-09-10T00:40:22.813Z,3.83
2022-09-10T00:42:24.410Z,3.90
2022-09-10T00:44:39.583Z,4.07
2022-09-10T00:46:47.628Z,4.35
2022-09-10T00:48:49.229Z,4.53
2022-09-10T00:50:51.979Z,4.70
2022-09-10T00:52:56.829Z,5.18
2022-09-10T00:54:59.435Z,4.32
2022-09-10T00:57:03.670Z,4.53
2022-09-10T00:59:06.865Z,4.55
2022-09-10T01:01:08.719Z,4.95
2022-09-10T01:03:12.137Z,4.25
2022-09-10T01:05:14.456Z,4.57
2022-09-10T01:07:16.591Z,5.28
2022-09-10T01:09:19.273Z,4.68
2022-09-10T01:11:27.127Z,5.65
2022-09-10T01:13:36.092Z,4.80
2022-09-10T01:15:47.201Z,4.32
2022-09-10T01:17:56.167Z,6.07
2022-09-10T01:20:08.867Z,5.82
2022-09-10T01:22:22.430Z,5.68
2022-09-10T01:24:24.560Z,5.70
2022-09-10T01:26:31.998Z,4.63
2022-09-10T01:28:37.868Z,4.93
2022-09-10T01:30:44.033Z,5.60
2022-09-10T01:32:45.585Z,4.50
2022-09-10T01:34:47.315Z,5.57
2022-09-10T01:36:52.081Z,4.55
2022-09-10T01:38:53.791Z,4.32
2022-09-10T01:40:56.173Z,4.07
2022-09-10T01:43:01.485Z,5.10
2022-09-10T01:45:03.203Z,4.88
2022-09-10T01:47:12.961Z,4.85
2022-09-10T01:49:26.301Z,4.90
2022-09-10T01:51:28.242Z,5.20
2022-09-10T01:53:48.350Z,5.45
2022-09-10T01:56:08.858Z,5.65
2022-09-10T01:58:20.233Z,4.72
2022-09-10T02:00:24.304Z,6.60
2022-09-10T02:04:27.539Z,5.45
2022-09-10T02:06:30.776Z,5.85
2022-09-10T02:08:34.029Z,6.53
2022-09-10T02:10:47.158Z,5.43
2022-09-10T02:12:48.705Z,5.15
2022-09-10T02:14:56.573Z,4.63
2022-09-10T02:16:59.375Z,5.10
2022-09-10T02:19:01.580Z,4.85
2022-09-10T02:21:03.374Z,4.97
2022-09-10T02:23:05.327Z,4.68
2022-09-10T02:25:07.314Z,5.65
2022-09-10T02:27:08.880Z,5.95
2022-09-10T02:29:12.433Z,5.20
2022-09-10T02:31:14.073Z,4.40
2022-09-10T02:33:18.592Z,5.60
2022-09-10T02:35:20.857Z,4.25
2022-09-10T02:37:22.557Z,5.30
2022-09-10T02:39:24.750Z,5.35
2022-09-10T02:41:26.430Z,5.65
2022-09-10T02:43:28.659Z,4.82
2022-09-10T02:45:31.062Z,5.70
2022-09-10T02:47:32.621Z,5.07
2022-09-10T02:49:34.786Z,5.13
2022-09-10T02:51:40.905Z,6.97
2022-09-10T02:53:44.463Z,6.90
2022-09-10T02:55:48.549Z,5.88
2022-09-10T02:57:53.220Z,4.07
2022-09-10T02:59:59.265Z,3.95
2022-09-10T03:02:03.472Z,4.28
2022-09-10T03:04:07.785Z,5.30
2022-09-10T03:06:13.335Z,4.30
2022-09-10T03:08:17.451Z,4.15
2022-09-10T03:12:25.089Z,3.70
2022-09-10T03:14:32.576Z,3.65
2022-09-10T03:16:36.925Z,3.35
2022-09-10T03:18:41.641Z,4.53
2022-09-10T03:20:45.608Z,3.28
2022-09-10T03:22:47.613Z,4.07
2022-09-10T03:24:49.749Z,3.95
2022-09-10T03:26:51.552Z,3.40
2022-09-10T03:28:53.193Z,3.22
2022-09-10T03:30:55.122Z,3.08
2022-09-10T03:32:57.911Z,2.65
2022-09-10T03:35:00.123Z,3.60
2022-09-10T03:37:01.563Z,3.10
2022-09-10T03:39:03.108Z,3.67
2022-09-10T03:41:04.882Z,2.47
2022-09-10T03:43:06.563Z,2.97
2022-09-10T03:45:08.487Z,2.90
2022-09-10T03:47:11.742Z,3.08
2022-09-10T03:49:14.340Z,3.88
2022-09-10T03:51:16.329Z,4.38
2022-09-10T03:53:19.601Z,4.35
2022-09-10T03:55:22.179Z,4.53
2022-09-10T03:57:23.835Z,4.65
2022-09-10T03:59:25.353Z,3.85
2022-09-10T04:01:27.346Z,5.03
2022-09-10T04:03:29.291Z,5.43
2022-09-10T04:05:30.892Z,4.55
2022-09-10T04:07:32.471Z,4.30
2022-09-10T04:09:34.170Z,4.78
2022-09-10T04:11:36.082Z,4.30
2022-09-10T04:13:37.623Z,4.72
2022-09-10T04:15:40.056Z,4.57
2022-09-10T04:17:41.576Z,4.40
2022-09-10T04:19:43.343Z,4.25
2022-09-10T04:21:44.867Z,4.00
2022-09-10T04:23:47.349Z,4.55
2022-09-10T04:25:49.593Z,3.90
2022-09-10T04:27:51.243Z,3.83
2022-09-10T04:29:52.974Z,4.25
2022-09-10T04:31:55.360Z,3.28
2022-09-10T04:33:56.912Z,2.88
2022-09-10T04:36:01.005Z,2.72
2022-09-10T04:40:04.458Z,3.50
2022-09-10T04:42:07.014Z,3.40
2022-09-10T04:44:08.895Z,3.95
2022-09-10T04:46:10.367Z,3.85
2022-09-10T04:48:12.066Z,4.10
2022-09-10T04:50:15.445Z,4.20
2022-09-10T04:52:17.371Z,4.18
2022-09-10T04:54:19.714Z,4.20
2022-09-10T04:56:21.489Z,3.75
2022-09-10T04:58:23.148Z,4.68
2022-09-10T05:00:26.624Z,4.72
2022-09-10T05:02:28.346Z,5.47
2022-09-10T05:04:29.894Z,4.00
2022-09-10T05:06:31.536Z,3.70
2022-09-10T05:08:33.171Z,3.92
2022-09-10T05:10:36.733Z,3.47
2022-09-10T05:12:40.850Z,5.22
2022-09-10T05:16:46.379Z,3.60
2022-09-10T05:18:48.633Z,2.63
2022-09-10T05:20:50.330Z,2.92
2022-09-10T05:22:52.046Z,3.05
2022-09-10T05:24:55.434Z,2.90
2022-09-10T05:26:57.087Z,3.95
2022-09-10T05:28:59.825Z,3.72
2022-09-10T05:31:01.609Z,4.00
2022-09-10T05:33:03.542Z,3.55
2022-09-10T05:35:05.403Z,4.10
2022-09-10T05:37:08.905Z,3.78
2022-09-10T05:39:10.504Z,4.07
2022-09-10T05:41:12.497Z,4.22
2022-09-10T05:43:14.008Z,4.93
2022-09-10T05:45:15.757Z,3.80
2022-09-10T05:47:17.405Z,3.10
2022-09-10T05:49:18.889Z,2.22
2022-09-10T05:51:20.361Z,2.95
2022-09-10T05:53:21.826Z,2.80
2022-09-10T05:55:23.502Z,3.92
2022-09-10T05:57:29.389Z,3.30
2022-09-10T05:59:32.327Z,2.83
2022-09-10T06:01:45.586Z,3.42
2022-09-10T06:04:00.716Z,4.70
2022-09-10T06:06:11.308Z,4.15
2022-09-10T06:08:24.472Z,3.15
2022-09-10T06:10:41.722Z,3.80
2022-09-10T06:12:52.745Z,3.20
2022-09-10T06:15:05.323Z,3.85
2022-09-10T06:17:15.636Z,4.25
2022-09-10T06:19:23.173Z,3.70
2022-09-10T06:21:34.132Z,3.88
2022-09-10T06:23:47.244Z,3.70
2022-09-10T06:26:06.772Z,4.13
2022-09-10T06:28:22.309Z,4.03
2022-09-10T06:30:24.537Z,4.78
2022-09-10T06:32:26.641Z,4.85
2022-09-10T06:34:28.261Z,4.50
2022-09-10T06:36:29.802Z,4.72
2022-09-10T06:38:33.632Z,4.63
2022-09-10T06:40:36.044Z,5.40
2022-09-10T06:42:39.006Z,4.88
2022-09-10T06:44:40.484Z,5.15
2022-09-10T06:49:05.437Z,5.20
2022-09-10T06:51:08.229Z,5.25
2022-09-10T06:53:11.630Z,5.25
2022-09-10T06:55:13.606Z,4.70
2022-09-10T06:57:15.302Z,5.18
2022-09-10T06:59:18.508Z,5.57
2022-09-10T07:01:21.555Z,5.70
2022-09-10T07:03:24.099Z,5.57
2022-09-10T07:05:27.602Z,4.80
2022-09-10T07:07:29.791Z,4.80
2022-09-10T07:09:31.297Z,4.65
2022-09-10T07:11:32.900Z,4.95
2022-09-10T07:13:35.137Z,5.43
2022-09-10T07:15:36.959Z,4.97
2022-09-10T07:17:38.687Z,4.15
2022-09-10T07:19:40.281Z,5.00
2022-09-10T07:21:42.117Z,4.70
2022-09-10T07:23:50.239Z,4.63
2022-09-10T07:25:51.975Z,5.93
2022-09-10T07:27:53.950Z,3.70
2022-09-10T07:29:55.646Z,4.50
2022-09-10T07:31:57.090Z,4.65
2022-09-10T07:33:58.861Z,4.68
2022-09-10T07:36:00.800Z,4.22
2022-09-10T07:38:02.781Z,4.57
2022-09-10T07:40:04.805Z,3.85
2022-09-10T07:42:06.577Z,3.63
2022-09-10T07:44:08.178Z,4.00
2022-09-10T07:46:14.055Z,3.70
2022-09-10T07:48:15.631Z,3.55
2022-09-10T07:50:17.183Z,3.03
2022-09-10T07:52:18.800Z,3.13
2022-09-10T07:54:20.389Z,2.80
2022-09-10T07:56:23.434Z,2.70
2022-09-10T07:58:24.955Z,3.40
2022-09-10T08:00:26.473Z,2.72
2022-09-10T08:02:28.079Z,2.75
2022-09-10T08:04:36.711Z,2.67
2022-09-10T08:06:39.090Z,3.13
2022-09-10T08:08:41.494Z,2.97
2022-09-10T08:10:43.081Z,2.30
2022-09-10T08:12:44.654Z,2.22
2022-09-10T08:14:46.200Z,2.78
2022-09-10T08:16:47.817Z,2.30
2022-09-10T08:18:50.123Z,1.75
2022-09-10T08:20:55.549Z,1.58
2022-09-10T08:22:58.542Z,2.08
2022-09-10T08:25:00.397Z,1.33
2022-09-10T08:27:01.954Z,1.85
2022-09-10T08:29:04.141Z,1.70
2022-09-10T08:31:09.936Z,2.33
2022-09-10T08:33:12.535Z,1.70
2022-09-10T08:35:14.545Z,1.70
2022-09-10T08:37:16.689Z,2.13
2022-09-10T08:39:18.310Z,1.05
2022-09-10T08:41:23.402Z,1.52
2022-09-10T08:43:31.590Z,1.52
2022-09-10T08:45:34.183Z,1.25
2022-09-10T08:47:54.556Z,1.00
2022-09-10T08:49:56.100Z,0.88
2022-09-10T08:52:01.360Z,1.05
2022-09-10T08:54:05.784Z,1.02
2022-09-10T08:56:10.205Z,0.68
2022-09-10T08:58:19.073Z,0.55
2022-09-10T09:00:23.419Z,0.85
2022-09-10T09:02:55.905Z,0.82
2022-09-10T09:04:59.487Z,1.25
2022-09-10T09:07:07.149Z,0.63
2022-09-10T09:09:18.978Z,1.10
2022-09-10T09:11:52.280Z,1.60
2022-09-10T09:14:21.512Z,0.73
2022-09-10T09:16:30.097Z,0.60
2022-09-10T09:18:45.360Z,1.00
2022-09-10T09:21:06.662Z,0.57
2022-09-10T09:23:18.582Z,0.80
2022-09-10T09:25:32.864Z,0.50
2022-09-10T09:27:49.097Z,0.80
2022-09-10T09:30:24.918Z,0.88
2022-09-10T09:32:44.153Z,0.57
2022-09-10T09:35:03.038Z,0.50
2022-09-10T09:37:15.522Z,0.90
2022-09-10T09:39:24.942Z,0.60
2022-09-10T09:41:31.080Z,0.40
2022-09-10T09:43:44.771Z,0.95
2022-09-10T09:45:47.888Z,0.80
2022-09-10T09:47:54.375Z,0.90
2022-09-10T09:49:56.643Z,0.70
2022-09-10T09:51:58.738Z,0.50
2022-09-10T09:54:39.387Z,0.40
2022-09-10T09:56:27.877Z,0.82
2022-09-10T09:58:30.833Z,0.68
2022-09-10T10:00:37.800Z,0.32
2022-09-10T10:02:39.535Z,0.47
2022-09-10T10:04:56.481Z,0.40
2022-09-10T10:06:59.239Z,0.50
2022-09-10T10:09:02.886Z,0.55
2022-09-10T10:11:04.762Z,0.47
2022-09-10T10:13:20.121Z,0.52
2022-09-10T10:15:38.863Z,0.50
2022-09-10T10:17:40.700Z,0.45
2022-09-10T10:19:44.510Z,0.95
2022-09-10T10:21:47.381Z,1.00
2022-09-10T10:23:49.374Z,1.58
2022-09-10T10:25:52.914Z,0.20
2022-09-10T10:30:14.408Z,0.60
2022-09-10T10:32:16.452Z,0.47
2022-09-10T10:34:47.674Z,0.55
2022-09-10T10:37:04.336Z,0.35
2022-09-10T10:39:14.930Z,0.45
2022-09-10T10:41:36.700Z,0.43
2022-09-10T10:43:44.679Z,0.40
2022-09-10T10:46:00.992Z,0.55
2022-09-10T10:48:14.372Z,0.50
2022-09-10T10:50:15.879Z,0.43
2022-09-10T10:52:35.498Z,0.63
2022-09-10T10:54:43.299Z,0.40
2022-09-10T10:56:50.787Z,0.60
2022-09-10T10:58:59.512Z,0.70
2022-09-10T11:01:19.910Z,2.33
2022-09-10T11:03:33.876Z,1.02
2022-09-10T11:05:38.761Z,0.88
2022-09-10T11:07:41.315Z,1.13
2022-09-10T11:09:59.135Z,0.88
2022-09-10T11:12:03.429Z,0.77
2022-09-10T11:14:17.570Z,1.27
2022-09-10T11:16:21.825Z,0.98
2022-09-10T11:18:42.988Z,0.80
2022-09-10T11:20:47.441Z,1.00
2022-09-10T11:22:51.030Z,0.60
2022-09-10T11:24:58.962Z,0.85
2022-09-10T11:27:09.171Z,0.70
2022-09-10T11:29:16.834Z,0.63
2022-09-10T11:31:38.454Z,0.88
2022-09-10T11:33:46.215Z,0.63
2022-09-10T11:35:50.768Z,0.80
2022-09-10T11:37:55.148Z,1.00
2022-09-10T11:39:59.607Z,0.80
2022-09-10T11:42:03.658Z,0.60
2022-09-10T11:44:24.122Z,0.93
2022-09-10T11:46:32.345Z,1.00
2022-09-10T11:48:48.306Z,1.30
2022-09-10T11:50:52.443Z,1.17
2022-09-10T11:52:56.564Z,0.70
2022-09-10T11:54:58.898Z,1.75
2022-09-10T11:57:03.322Z,1.10
2022-09-10T11:59:17.313Z,0.85
2022-09-10T12:01:21.823Z,0.75
2022-09-10T12:03:34.802Z,0.30
2022-09-10T12:05:55.071Z,0.40
2022-09-10T12:08:06.148Z,0.40
2022-09-10T12:10:44.328Z,0.60
2022-09-10T12:12:54.556Z,0.63
2022-09-10T12:15:12.587Z,0.50
2022-09-10T12:17:28.361Z,0.60
2022-09-10T12:19:43.466Z,0.90
2022-09-10T12:22:04.514Z,0.60
2022-09-10T12:24:41.243Z,0.60
2022-09-10T12:26:47.025Z,0.60
2022-09-10T12:29:03.423Z,0.30
2022-09-10T12:31:34.120Z,0.50
2022-09-10T12:33:46.234Z,0.45
2022-09-10T12:36:08.545Z,0.80
2022-09-10T12:38:52.125Z,0.80
2022-09-10T12:41:26.235Z,0.75
2022-09-10T12:43:40.308Z,0.30
2022-09-10T12:46:04.287Z,0.30
2022-09-10T12:48:11.587Z,0.38
2022-09-10T12:50:33.374Z,0.60
2022-09-10T12:52:35.072Z,0.50
2022-09-10T12:54:36.621Z,0.20
2022-09-10T12:56:41.470Z,0.63
2022-09-10T12:59:10.012Z,0.40
2022-09-10T13:01:38.757Z,0.40
2022-09-10T13:03:48.038Z,0.70
2022-09-10T13:05:51.504Z,0.43
2022-09-10T13:08:13.926Z,0.57
2022-09-10T13:10:29.122Z,0.40
2022-09-10T13:12:32.866Z,0.30
2022-09-10T13:16:40.327Z,1.55
2022-09-10T13:18:42.158Z,0.30
2022-09-10T13:20:43.877Z,0.40
2022-09-10T13:23:02.404Z,0.38
2022-09-10T13:25:24.150Z,0.50
2022-09-10T13:27:39.882Z,0.30
2022-09-10T13:29:49.306Z,0.25
2022-09-10T13:31:56.162Z,0.50
2022-09-10T13:34:10.725Z,0.40
2022-09-10T13:36:17.444Z,0.30
2022-09-10T13:38:48.230Z,0.40
2022-09-10T13:40:56.250Z,0.47
2022-09-10T13:43:16.292Z,0.50
2022-09-10T13:45:23.582Z,0.20
2022-09-10T13:47:57.842Z,0.63
2022-09-10T13:50:18.061Z,0.28
2022-09-10T13:52:22.469Z,0.30
2022-09-10T13:54:34.753Z,0.20
2022-09-10T13:56:36.377Z,0.35
2022-09-10T13:58:42.106Z,0.20
2022-09-10T14:00:54.139Z,0.40
2022-09-10T14:02:56.967Z,0.20
2022-09-10T14:04:58.783Z,0.33
2022-09-10T14:07:09.034Z,0.60
2022-09-10T14:09:11.492Z,0.20
2022-09-10T14:11:13.350Z,0.43
2022-09-10T14:13:16.866Z,0.20
2022-09-10T14:15:22.078Z,0.30
2022-09-10T14:17:25.731Z,0.20
2022-09-10T14:19:32.529Z,0.30
2022-09-10T14:21:34.326Z,0.32
2022-09-10T14:23:36.073Z,0.30
2022-09-10T14:25:39.842Z,0.22
2022-09-10T14:29:43.595Z,0.45
2022-09-10T14:31:45.109Z,0.40
2022-09-10T14:33:46.804Z,0.40
2022-09-10T14:35:49.814Z,0.20
2022-09-10T14:37:51.817Z,0.40
2022-09-10T14:39:53.497Z,0.77
2022-09-10T14:42:08.546Z,0.30
2022-09-10T14:44:22.277Z,0.57
2022-09-10T14:46:42.657Z,0.40
2022-09-10T14:48:59.903Z,0.45
2022-09-10T14:51:13.506Z,0.45
2022-09-10T14:53:15.018Z,0.85
2022-09-10T14:55:17.653Z,0.35
2022-09-10T14:57:19.783Z,0.73
2022-09-10T14:59:33.287Z,0.30
2022-09-10T15:01:35.541Z,0.40
2022-09-10T15:03:40.838Z,0.30
2022-09-10T15:05:42.694Z,0.40
2022-09-10T15:07:45.410Z,0.45
2022-09-10T15:09:47.245Z,0.40
2022-09-10T15:11:54.913Z,0.25
2022-09-10T15:13:56.955Z,0.25
2022-09-10T15:15:58.471Z,0.22
2022-09-10T15:18:03.203Z,0.32
2022-09-10T15:20:06.575Z,0.47
2022-09-10T15:24:58.686Z,0.40
2022-09-10T15:27:20.513Z,0.22
2022-09-10T15:32:25.960Z,0.20
2022-09-10T15:34:54.160Z,0.30
2022-09-10T15:37:20.139Z,0.20
2022-09-10T15:42:30.530Z,0.40
2022-09-10T15:45:05.821Z,0.35
2022-09-10T15:47:23.028Z,0.50
2022-09-10T15:49:29.894Z,0.35
2022-09-10T15:51:31.448Z,0.22
2022-09-10T15:53:35.989Z,0.20
2022-09-10T15:55:38.049Z,0.52
2022-09-10T15:57:40.561Z,0.30
2022-09-10T15:59:42.051Z,0.40
2022-09-10T16:01:43.625Z,0.10
2022-09-10T16:03:46.799Z,0.30
2022-09-10T16:05:48.246Z,0.57
2022-09-10T16:07:50.007Z,0.32
2022-09-10T16:09:51.544Z,0.22
2022-09-10T16:11:53.255Z,0.40
2022-09-10T16:13:57.001Z,0.20
2022-09-10T16:16:01.921Z,0.30
2022-09-10T16:18:03.942Z,0.40
2022-09-10T16:20:05.833Z,0.60
2022-09-10T16:22:08.219Z,0.43
2022-09-10T16:24:09.810Z,0.52
2022-09-10T16:26:14.946Z,0.63
2022-09-10T16:28:16.449Z,0.45
2022-09-10T16:30:18.121Z,0.60
2022-09-10T16:32:19.649Z,0.50
2022-09-10T16:34:22.242Z,0.25
2022-09-10T16:36:23.998Z,0.30
2022-09-10T16:38:25.893Z,0.57
2022-09-10T16:40:27.328Z,0.35
2022-09-10T16:42:29.312Z,0.60
2022-09-10T16:44:32.276Z,0.22
2022-09-10T16:46:34.375Z,0.60
2022-09-10T16:48:36.969Z,0.30
2022-09-10T16:50:38.771Z,0.30
2022-09-10T16:52:40.725Z,1.13
2022-09-10T16:54:42.220Z,0.45
2022-09-10T16:56:45.244Z,0.50
2022-09-10T16:58:47.658Z,0.47
2022-09-10T17:00:51.971Z,0.40
2022-09-10T17:02:53.461Z,0.85
2022-09-10T17:04:55.756Z,0.70
2022-09-10T17:06:57.675Z,0.43
2022-09-10T17:08:59.822Z,0.90
2022-09-10T17:11:02.766Z,0.70
2022-09-10T17:13:04.502Z,0.70
2022-09-10T17:15:06.468Z,0.60
2022-09-10T17:17:08.121Z,0.60
2022-09-10T17:19:11.742Z,0.52
2022-09-10T17:21:14.649Z,0.80
2022-09-10T17:23:18.966Z,1.33
2022-09-10T17:25:21.112Z,3.03
2022-09-10T17:27:25.527Z,4.20
2022-09-10T17:29:27.335Z,6.25
2022-09-10T17:31:29.782Z,5.28
2022-09-10T17:33:31.857Z,5.35
2022-09-10T17:35:33.846Z,5.68
2022-09-10T17:37:37.019Z,5.75
2022-09-10T17:39:38.866Z,3.88
2022-09-10T17:41:40.724Z,4.55
2022-09-10T17:43:43.358Z,5.18
2022-09-10T17:45:45.596Z,4.28
2022-09-10T17:47:48.419Z,3.88
2022-09-10T17:49:53.579Z,4.03
2022-09-10T17:51:55.436Z,2.53
2022-09-10T17:53:57.725Z,2.97
2022-09-10T17:56:04.076Z,2.92
2022-09-10T17:58:05.981Z,2.47
2022-09-10T18:00:11.446Z,2.35
2022-09-10T18:02:15.453Z,1.83
2022-09-10T18:04:17.302Z,2.65
2022-09-10T18:06:19.344Z,2.15
2022-09-10T18:08:22.030Z,2.03
2022-09-10T18:10:23.932Z,2.10
2022-09-10T18:12:26.025Z,2.78
2022-09-10T18:14:28.267Z,2.47
2022-09-10T18:16:31.289Z,2.47
2022-09-10T18:18:35.243Z,3.03
2022-09-10T18:22:39.134Z,1.50
2022-09-10T18:24:40.866Z,1.75
2022-09-10T18:26:44.490Z,1.63
2022-09-10T18:28:59.384Z,2.17
2022-09-10T18:31:06.135Z,2.83
2022-09-10T18:33:12.929Z,3.17
2022-09-10T18:35:20.447Z,3.35
2022-09-10T18:37:24.593Z,3.67
2022-09-10T18:39:31.802Z,6.75
2022-09-10T18:41:40.948Z,6.18
2022-09-10T18:43:45.878Z,4.78
2022-09-10T18:45:51.309Z,5.15
2022-09-10T18:47:56.351Z,5.13
2022-09-10T18:50:00.441Z,5.05
2022-09-10T18:52:05.504Z,9.05
2022-09-10T18:54:11.509Z,9.30
2022-09-10T18:56:18.168Z,8.80
2022-09-10T18:58:20.474Z,9.38
2022-09-10T19:00:25.193Z,6.90
2022-09-10T19:02:27.424Z,7.40
2022-09-10T19:04:32.654Z,9.80
2022-09-10T19:06:36.366Z,7.85
2022-09-10T19:08:38.509Z,12.88
2022-09-10T19:10:40.446Z,8.82
2022-09-10T19:12:42.368Z,8.32
2022-09-10T19:14:46.034Z,9.05
2022-09-10T19:16:49.111Z,9.00
2022-09-10T19:18:51.837Z,10.38
2022-09-10T19:20:54.227Z,8.93
2022-09-10T19:22:56.102Z,7.30
2022-09-10T19:24:58.202Z,7.50
2022-09-10T19:27:00.221Z,6.82
2022-09-10T19:29:02.489Z,9.73
2022-09-10T19:31:05.084Z,11.77
2022-09-10T19:33:06.942Z,10.00
2022-09-10T19:35:10.540Z,9.27
2022-09-10T19:37:13.171Z,8.40
2022-09-10T19:39:16.413Z,8.98
2022-09-10T19:41:19.071Z,9.50
2022-09-10T19:43:21.354Z,8.38
2022-09-10T19:45:23.361Z,8.38
2022-09-10T19:47:25.492Z,8.27
2022-09-10T19:49:27.757Z,9.40
2022-09-10T19:51:31.292Z,8.70
2022-09-10T19:53:36.101Z,9.15
2022-09-10T19:55:38.050Z,6.95
2022-09-10T19:57:40.229Z,6.57
2022-09-10T19:59:42.750Z,6.75
2022-09-10T20:01:46.919Z,8.40
2022-09-10T20:03:50.135Z,11.55
2022-09-10T20:05:52.160Z,13.13
2022-09-10T20:07:54.132Z,10.43
2022-09-10T20:09:56.682Z,10.25
2022-09-10T20:11:58.976Z,7.18
2022-09-10T20:14:08.205Z,8.27
2022-09-10T20:16:10.422Z,7.70
2022-09-10T20:18:12.417Z,8.35
2022-09-10T20:20:14.577Z,8.32
2022-09-10T20:22:16.374Z,7.97
2022-09-10T20:24:18.345Z,8.30
2022-09-10T20:26:23.710Z,10.57
2022-09-10T20:28:25.450Z,12.80
2022-09-10T20:30:27.747Z,13.25
2022-09-10T20:32:29.848Z,11.50
2022-09-10T20:34:32.797Z,11.65
2022-09-10T20:36:35.364Z,11.75
2022-09-10T20:38:38.461Z,9.75
2022-09-10T20:40:41.992Z,11.27
2022-09-10T20:42:43.920Z,10.43
2022-09-10T20:44:46.305Z,10.10
2022-09-10T20:46:48.264Z,10.20
2022-09-10T20:48:50.629Z,12.48
2022-09-10T20:50:56.606Z,9.65
2022-09-10T20:52:58.445Z,15.00
2022-09-10T20:55:01.624Z,16.30
2022-09-10T20:57:03.592Z,19.15
2022-09-10T20:59:08.234Z,20.02
2022-09-10T21:01:12.287Z,21.73
2022-09-10T21:03:14.314Z,20.27
2022-09-10T21:05:16.107Z,21.98
2022-09-10T21:07:17.910Z,20.65
2022-09-10T21:09:19.769Z,13.63
2022-09-10T21:11:22.270Z,12.68
2022-09-10T21:13:25.941Z,10.02
2022-09-10T21:15:28.897Z,8.30
2022-09-10T21:17:31.169Z,8.85
2022-09-10T21:19:33.839Z,8.32
2022-09-10T21:21:36.725Z,7.78
2022-09-10T21:23:48.392Z,9.70
2022-09-10T21:25:51.309Z,6.53
2022-09-10T21:27:53.041Z,6.60
2022-09-10T21:29:55.176Z,7.70
2022-09-10T21:31:57.236Z,6.60
2022-09-10T21:34:03.694Z,6.88
2022-09-10T21:36:19.666Z,6.28
2022-09-10T21:38:30.392Z,4.90
2022-09-10T21:40:38.014Z,4.32
2022-09-10T21:42:42.115Z,3.28
2022-09-10T21:44:50.633Z,5.97
2022-09-10T21:47:00.825Z,4.70
2022-09-10T21:49:11.778Z,4.53
2022-09-10T21:51:21.878Z,4.60
2022-09-10T21:53:33.882Z,5.38
2022-09-10T21:55:39.559Z,4.60
2022-09-10T21:57:50.728Z,4.35
2022-09-10T22:00:02.297Z,5.00
2022-09-10T22:02:06.244Z,4.68
2022-09-10T22:04:08.526Z,6.40
2022-09-10T22:06:11.467Z,4.82
2022-09-10T22:08:13.499Z,5.05
2022-09-10T22:10:18.239Z,5.35
2022-09-10T22:12:20.249Z,6.95
2022-09-10T22:14:23.308Z,5.40
2022-09-10T22:16:25.185Z,6.13
2022-09-10T22:18:27.298Z,7.63
2022-09-10T22:20:28.886Z,6.78
2022-09-10T22:22:30.591Z,6.28
2022-09-10T22:24:32.138Z,6.00
2022-09-10T22:26:34.201Z,5.80
2022-09-10T22:28:36.058Z,4.88
2022-09-10T22:30:38.053Z,5.45
2022-09-10T22:32:39.961Z,3.97
2022-09-10T22:34:43.329Z,4.22
2022-09-10T22:36:45.862Z,4.93
2022-09-10T22:38:51.239Z,6.45
2022-09-10T22:40:53.611Z,5.57
2022-09-10T22:42:55.094Z,5.07
2022-09-10T22:44:57.395Z,4.60
2022-09-10T22:46:59.874Z,6.82
2022-09-10T22:49:01.545Z,5.47
2022-09-10T22:51:04.469Z,6.50
2022-09-10T22:53:05.929Z,5.75
2022-09-10T22:55:07.837Z,7.70
2022-09-10T22:57:09.713Z,6.07
2022-09-10T22:59:12.692Z,6.70
2022-09-10T23:01:16.116Z,5.22
2022-09-10T23:03:17.805Z,4.00
2022-09-10T23:05:19.883Z,5.72
2022-09-10T23:07:21.887Z,5.22
2022-09-10T23:09:23.465Z,3.88
2022-09-10T23:11:26.797Z,4.53
2022-09-10T23:13:28.554Z,4.72
2022-09-10T23:15:31.474Z,4.60
2022-09-10T23:17:33.603Z,3.58
2022-09-10T23:19:35.275Z,3.63
2022-09-10T23:21:40.010Z,5.47
2022-09-10T23:23:44.685Z,6.10
2022-09-10T23:25:46.686Z,6.53
2022-09-10T23:27:49.193Z,6.22
2022-09-10T23:29:50.843Z,6.32
2022-09-10T23:31:55.017Z,6.25
2022-09-10T23:36:00.018Z,6.15
2022-09-10T23:38:01.496Z,4.82
2022-09-10T23:40:03.865Z,4.70
2022-09-10T23:42:06.082Z,4.75
2022-09-10T23:44:08.114Z,5.32
2022-09-10T23:46:10.183Z,5.07
2022-09-10T23:48:11.675Z,3.00
2022-09-10T23:50:13.451Z,3.20
2022-09-10T23:52:15.905Z,2.45
2022-09-10T23:54:17.790Z,2.53
2022-09-10T23:56:20.118Z,2.92
2022-09-10T23:58:21.933Z,2.80
